sensor_id;sensor_type;location;lat;lon;timestamp;P1;durP1;ratioP1;P2;durP2;ratioP2
34571;SDS011;20808;48.974;8.452;2023-01-28T00:00:02;6.65;;;4.60;;
34571;SDS011;20808;48.974;8.452;2023-01-28T00:00:21;6.30;;;4.43;;
34571;SDS011;20808;48.974;8.452;2023-01-28T00:00:37;6.60;;;4.60;;
34571;SDS011;20808;48.974;8.452;2023-01-28T00:00:52;6.45;;;4.55;;
34571;SDS011;20808;48.974;8.452;2023-01-28T00:01:10;6.60;;;4.70;;
34571;SDS011;20808;48.974;8.452;2023-01-28T00:01:27;6.28;;;4.50;;
34571;SDS011;20808;48.974;8.452;2023-01-28T00:01:43;6.22;;;4.43;;
34571;SDS011;20808;48.974;8.452;2023-01-28T00:01:59;6.63;;;4.80;;
34571;SDS011;20808;48.974;8.452;2023-01-28T00:02:15;6.65;;;4.88;;
34571;SDS011;20808;48.974;8.452;2023-01-28T00:02:30;6.90;;;4.90;;
34571;SDS011;20808;48.974;8.452;2023-01-28T00:02:47;6.40;;;4.63;;
34571;SDS011;20808;48.974;8.452;2023-01-28T00:03:03;5.75;;;4.40;;
34571;SDS011;20808;48.974;8.452;2023-01-28T00:03:19;5.82;;;4.38;;
34571;SDS011;20808;48.974;8.452;2023-01-28T00:03:35;6.25;;;4.40;;
34571;SDS011;20808;48.974;8.452;2023-01-28T00:03:52;6.40;;;4.35;;
34571;SDS011;20808;48.974;8.452;2023-01-28T00:04:08;6.13;;;4.13;;
34571;SDS011;20808;48.974;8.452;2023-01-28T00:04:25;6.25;;;4.15;;
34571;SDS011;20808;48.974;8.452;2023-01-28T00:04:41;5.80;;;4.10;;
34571;SDS011;20808;48.974;8.452;2023-01-28T00:04:56;6.07;;;4.13;;
34571;SDS011;20808;48.974;8.452;2023-01-28T00:05:12;6.97;;;4.40;;
34571;SDS011;20808;48.974;8.452;2023-01-28T00:05:29;6.18;;;4.03;;
34571;SDS011;20808;48.974;8.452;2023-01-28T00:05:45;6.20;;;4.00;;
34571;SDS011;20808;48.974;8.452;2023-01-28T00:06:01;5.90;;;3.85;;
34571;SDS011;20808;48.974;8.452;2023-01-28T00:06:18;6.10;;;3.83;;
34571;SDS011;20808;48.974;8.452;2023-01-28T00:06:34;6.03;;;4.10;;
34571;SDS011;20808;48.974;8.452;2023-01-28T00:06:51;5.30;;;4.10;;
34571;SDS011;20808;48.974;8.452;2023-01-28T00:07:07;4.80;;;4.00;;
34571;SDS011;20808;48.974;8.452;2023-01-28T00:07:24;5.45;;;4.20;;
34571;SDS011;20808;48.974;8.452;2023-01-28T00:07:40;5.50;;;4.10;;
34571;SDS011;20808;48.974;8.452;2023-01-28T00:07:56;6.20;;;4.30;;
34571;SDS011;20808;48.974;8.452;2023-01-28T00:08:13;6.63;;;4.53;;
34571;SDS011;20808;48.974;8.452;2023-01-28T00:08:29;6.68;;;4.40;;
34571;SDS011;20808;48.974;8.452;2023-01-28T00:08:44;6.88;;;4.25;;
34571;SDS011;20808;48.974;8.452;2023-01-28T00:09:00;6.20;;;4.10;;
34571;SDS011;20808;48.974;8.452;2023-01-28T00:09:16;5.90;;;4.00;;
34571;SDS011;20808;48.974;8.452;2023-01-28T00:09:33;5.30;;;3.85;;
34571;SDS011;20808;48.974;8.452;2023-01-28T00:09:49;5.95;;;4.15;;
34571;SDS011;20808;48.974;8.452;2023-01-28T00:10:05;6.28;;;4.30;;
34571;SDS011;20808;48.974;8.452;2023-01-28T00:10:21;6.32;;;4.22;;
34571;SDS011;20808;48.974;8.452;2023-01-28T00:10:37;6.07;;;4.20;;
34571;SDS011;20808;48.974;8.452;2023-01-28T00:10:53;5.60;;;4.10;;
34571;SDS011;20808;48.974;8.452;2023-01-28T00:11:13;6.43;;;4.25;;
34571;SDS011;20808;48.974;8.452;2023-01-28T00:11:29;6.90;;;4.50;;
34571;SDS011;20808;48.974;8.452;2023-01-28T00:11:44;7.40;;;4.63;;
34571;SDS011;20808;48.974;8.452;2023-01-28T00:12:00;6.63;;;4.53;;
34571;SDS011;20808;48.974;8.452;2023-01-28T00:12:16;5.93;;;4.20;;
34571;SDS011;20808;48.974;8.452;2023-01-28T00:12:32;6.30;;;4.13;;
34571;SDS011;20808;48.974;8.452;2023-01-28T00:12:49;5.43;;;3.78;;
34571;SDS011;20808;48.974;8.452;2023-01-28T00:13:05;5.47;;;3.70;;
34571;SDS011;20808;48.974;8.452;2023-01-28T00:13:21;5.68;;;3.83;;
34571;SDS011;20808;48.974;8.452;2023-01-28T00:13:38;5.25;;;3.88;;
34571;SDS011;20808;48.974;8.452;2023-01-28T00:13:54;5.10;;;3.80;;
34571;SDS011;20808;48.974;8.452;2023-01-28T00:14:10;5.10;;;3.95;;
34571;SDS011;20808;48.974;8.452;2023-01-28T00:14:27;4.47;;;3.60;;
34571;SDS011;20808;48.974;8.452;2023-01-28T00:14:43;4.75;;;3.60;;
34571;SDS011;20808;48.974;8.452;2023-01-28T00:15:00;4.50;;;3.50;;
34571;SDS011;20808;48.974;8.452;2023-01-28T00:15:16;4.43;;;3.30;;
34571;SDS011;20808;48.974;8.452;2023-01-28T00:15:32;5.22;;;3.67;;
34571;SDS011;20808;48.974;8.452;2023-01-28T00:15:53;4.72;;;3.63;;
34571;SDS011;20808;48.974;8.452;2023-01-28T00:16:10;5.13;;;3.90;;
34571;SDS011;20808;48.974;8.452;2023-01-28T00:16:26;5.13;;;3.97;;
34571;SDS011;20808;48.974;8.452;2023-01-28T00:16:42;4.80;;;3.80;;
34571;SDS011;20808;48.974;8.452;2023-01-28T00:16:58;4.60;;;3.70;;
34571;SDS011;20808;48.974;8.452;2023-01-28T00:17:15;4.70;;;3.70;;
34571;SDS011;20808;48.974;8.452;2023-01-28T00:17:31;4.75;;;3.58;;
34571;SDS011;20808;48.974;8.452;2023-01-28T00:17:46;5.23;;;3.67;;
34571;SDS011;20808;48.974;8.452;2023-01-28T00:18:02;5.13;;;3.70;;
34571;SDS011;20808;48.974;8.452;2023-01-28T00:18:18;5.03;;;3.63;;
34571;SDS011;20808;48.974;8.452;2023-01-28T00:18:35;4.95;;;3.78;;
34571;SDS011;20808;48.974;8.452;2023-01-28T00:18:51;5.03;;;3.60;;
34571;SDS011;20808;48.974;8.452;2023-01-28T00:19:07;5.15;;;3.60;;
34571;SDS011;20808;48.974;8.452;2023-01-28T00:19:23;4.90;;;3.40;;
34571;SDS011;20808;48.974;8.452;2023-01-28T00:19:39;5.18;;;3.45;;
34571;SDS011;20808;48.974;8.452;2023-01-28T00:19:56;4.85;;;3.50;;
34571;SDS011;20808;48.974;8.452;2023-01-28T00:20:12;4.85;;;3.60;;
34571;SDS011;20808;48.974;8.452;2023-01-28T00:20:28;4.75;;;3.70;;
34571;SDS011;20808;48.974;8.452;2023-01-28T00:20:54;4.20;;;3.50;;
34571;SDS011;20808;48.974;8.452;2023-01-28T00:21:11;4.07;;;3.50;;
34571;SDS011;20808;48.974;8.452;2023-01-28T00:21:29;4.40;;;3.60;;
34571;SDS011;20808;48.974;8.452;2023-01-28T00:21:45;4.88;;;3.70;;
34571;SDS011;20808;48.974;8.452;2023-01-28T00:22:01;5.30;;;3.70;;
34571;SDS011;20808;48.974;8.452;2023-01-28T00:22:19;5.10;;;3.50;;
34571;SDS011;20808;48.974;8.452;2023-01-28T00:22:35;4.70;;;3.30;;
34571;SDS011;20808;48.974;8.452;2023-01-28T00:22:52;4.32;;;3.30;;
34571;SDS011;20808;48.974;8.452;2023-01-28T00:23:08;4.68;;;3.60;;
34571;SDS011;20808;48.974;8.452;2023-01-28T00:23:24;4.68;;;3.70;;
34571;SDS011;20808;48.974;8.452;2023-01-28T00:23:40;4.80;;;3.67;;
34571;SDS011;20808;48.974;8.452;2023-01-28T00:23:57;4.78;;;3.78;;
34571;SDS011;20808;48.974;8.452;2023-01-28T00:24:13;4.75;;;3.65;;
34571;SDS011;20808;48.974;8.452;2023-01-28T00:24:30;5.50;;;3.90;;
34571;SDS011;20808;48.974;8.452;2023-01-28T00:24:45;5.50;;;3.87;;
34571;SDS011;20808;48.974;8.452;2023-01-28T00:25:01;5.65;;;3.85;;
34571;SDS011;20808;48.974;8.452;2023-01-28T00:25:17;5.57;;;3.90;;
34571;SDS011;20808;48.974;8.452;2023-01-28T00:25:33;5.20;;;3.75;;
34571;SDS011;20808;48.974;8.452;2023-01-28T00:25:49;4.78;;;3.70;;
34571;SDS011;20808;48.974;8.452;2023-01-28T00:26:07;4.65;;;3.80;;
34571;SDS011;20808;48.974;8.452;2023-01-28T00:26:25;5.10;;;3.90;;
34571;SDS011;20808;48.974;8.452;2023-01-28T00:26:41;4.97;;;3.90;;
34571;SDS011;20808;48.974;8.452;2023-01-28T00:26:57;5.32;;;3.80;;
34571;SDS011;20808;48.974;8.452;2023-01-28T00:27:13;5.30;;;3.63;;
34571;SDS011;20808;48.974;8.452;2023-01-28T00:27:30;4.85;;;3.50;;
34571;SDS011;20808;48.974;8.452;2023-01-28T00:27:46;5.05;;;3.60;;
34571;SDS011;20808;48.974;8.452;2023-01-28T00:28:03;5.00;;;3.50;;
34571;SDS011;20808;48.974;8.452;2023-01-28T00:28:19;5.05;;;3.50;;
34571;SDS011;20808;48.974;8.452;2023-01-28T00:28:35;5.38;;;3.63;;
34571;SDS011;20808;48.974;8.452;2023-01-28T00:28:51;5.00;;;3.45;;
34571;SDS011;20808;48.974;8.452;2023-01-28T00:29:07;5.45;;;3.50;;
34571;SDS011;20808;48.974;8.452;2023-01-28T00:29:23;5.53;;;3.50;;
34571;SDS011;20808;48.974;8.452;2023-01-28T00:29:39;4.95;;;3.38;;
34571;SDS011;20808;48.974;8.452;2023-01-28T00:29:55;5.28;;;3.60;;
34571;SDS011;20808;48.974;8.452;2023-01-28T00:30:12;4.68;;;3.50;;
34571;SDS011;20808;48.974;8.452;2023-01-28T00:30:28;5.25;;;3.80;;
34571;SDS011;20808;48.974;8.452;2023-01-28T00:30:44;5.20;;;3.75;;
34571;SDS011;20808;48.974;8.452;2023-01-28T00:31:04;5.07;;;3.70;;
34571;SDS011;20808;48.974;8.452;2023-01-28T00:31:21;4.93;;;3.72;;
34571;SDS011;20808;48.974;8.452;2023-01-28T00:31:40;4.78;;;3.75;;
34571;SDS011;20808;48.974;8.452;2023-01-28T00:31:55;4.95;;;3.95;;
34571;SDS011;20808;48.974;8.452;2023-01-28T00:32:11;4.45;;;3.80;;
34571;SDS011;20808;48.974;8.452;2023-01-28T00:32:27;5.07;;;4.13;;
34571;SDS011;20808;48.974;8.452;2023-01-28T00:32:43;5.45;;;4.35;;
34571;SDS011;20808;48.974;8.452;2023-01-28T00:32:59;5.68;;;4.40;;
34571;SDS011;20808;48.974;8.452;2023-01-28T00:33:15;6.32;;;4.63;;
34571;SDS011;20808;48.974;8.452;2023-01-28T00:33:31;6.47;;;4.70;;
34571;SDS011;20808;48.974;8.452;2023-01-28T00:33:47;6.38;;;4.60;;
34571;SDS011;20808;48.974;8.452;2023-01-28T00:34:04;5.63;;;4.40;;
34571;SDS011;20808;48.974;8.452;2023-01-28T00:34:20;4.85;;;4.07;;
34571;SDS011;20808;48.974;8.452;2023-01-28T00:34:37;4.45;;;3.67;;
34571;SDS011;20808;48.974;8.452;2023-01-28T00:34:53;4.30;;;3.60;;
34571;SDS011;20808;48.974;8.452;2023-01-28T00:35:08;4.57;;;3.60;;
34571;SDS011;20808;48.974;8.452;2023-01-28T00:35:25;4.75;;;3.60;;
34571;SDS011;20808;48.974;8.452;2023-01-28T00:35:41;4.60;;;3.60;;
34571;SDS011;20808;48.974;8.452;2023-01-28T00:35:57;4.85;;;3.70;;
34571;SDS011;20808;48.974;8.452;2023-01-28T00:36:15;5.22;;;3.80;;
34571;SDS011;20808;48.974;8.452;2023-01-28T00:36:32;5.38;;;3.80;;
34571;SDS011;20808;48.974;8.452;2023-01-28T00:36:48;4.97;;;3.70;;
34571;SDS011;20808;48.974;8.452;2023-01-28T00:37:11;4.80;;;3.90;;
34571;SDS011;20808;48.974;8.452;2023-01-28T00:37:28;4.63;;;3.90;;
34571;SDS011;20808;48.974;8.452;2023-01-28T00:37:45;4.95;;;3.85;;
34571;SDS011;20808;48.974;8.452;2023-01-28T00:38:01;4.28;;;3.40;;
34571;SDS011;20808;48.974;8.452;2023-01-28T00:38:18;4.13;;;3.10;;
34571;SDS011;20808;48.974;8.452;2023-01-28T00:38:34;4.63;;;3.20;;
34571;SDS011;20808;48.974;8.452;2023-01-28T00:38:50;5.00;;;3.30;;
34571;SDS011;20808;48.974;8.452;2023-01-28T00:39:09;5.15;;;3.25;;
34571;SDS011;20808;48.974;8.452;2023-01-28T00:39:28;4.90;;;3.30;;
34571;SDS011;20808;48.974;8.452;2023-01-28T00:39:43;4.30;;;3.30;;
34571;SDS011;20808;48.974;8.452;2023-01-28T00:39:59;4.82;;;3.55;;
34571;SDS011;20808;48.974;8.452;2023-01-28T00:40:15;4.90;;;3.70;;
34571;SDS011;20808;48.974;8.452;2023-01-28T00:40:32;5.10;;;3.83;;
34571;SDS011;20808;48.974;8.452;2023-01-28T00:40:48;5.20;;;3.80;;
34571;SDS011;20808;48.974;8.452;2023-01-28T00:41:07;4.57;;;3.47;;
34571;SDS011;20808;48.974;8.452;2023-01-28T00:41:24;4.78;;;3.40;;
34571;SDS011;20808;48.974;8.452;2023-01-28T00:41:41;4.70;;;3.40;;
34571;SDS011;20808;48.974;8.452;2023-01-28T00:41:57;4.80;;;3.50;;
34571;SDS011;20808;48.974;8.452;2023-01-28T00:42:14;5.00;;;3.70;;
34571;SDS011;20808;48.974;8.452;2023-01-28T00:42:30;4.72;;;3.63;;
34571;SDS011;20808;48.974;8.452;2023-01-28T00:42:46;4.50;;;3.47;;
34571;SDS011;20808;48.974;8.452;2023-01-28T00:43:02;4.35;;;3.40;;
34571;SDS011;20808;48.974;8.452;2023-01-28T00:43:17;4.10;;;3.38;;
34571;SDS011;20808;48.974;8.452;2023-01-28T00:43:33;4.32;;;3.60;;
34571;SDS011;20808;48.974;8.452;2023-01-28T00:43:50;4.68;;;3.60;;
34571;SDS011;20808;48.974;8.452;2023-01-28T00:44:07;4.88;;;3.50;;
34571;SDS011;20808;48.974;8.452;2023-01-28T00:44:23;5.63;;;3.63;;
34571;SDS011;20808;48.974;8.452;2023-01-28T00:44:39;5.28;;;3.38;;
34571;SDS011;20808;48.974;8.452;2023-01-28T00:44:54;5.10;;;3.30;;
34571;SDS011;20808;48.974;8.452;2023-01-28T00:45:11;4.73;;;3.43;;
34571;SDS011;20808;48.974;8.452;2023-01-28T00:45:27;4.10;;;3.30;;
34571;SDS011;20808;48.974;8.452;2023-01-28T00:45:43;4.35;;;3.40;;
34571;SDS011;20808;48.974;8.452;2023-01-28T00:45:58;4.18;;;3.38;;
34571;SDS011;20808;48.974;8.452;2023-01-28T00:46:14;4.25;;;3.30;;
34571;SDS011;20808;48.974;8.452;2023-01-28T00:46:31;4.45;;;3.50;;
34571;SDS011;20808;48.974;8.452;2023-01-28T00:46:47;4.68;;;3.80;;
34571;SDS011;20808;48.974;8.452;2023-01-28T00:47:03;4.50;;;3.60;;
34571;SDS011;20808;48.974;8.452;2023-01-28T00:47:19;4.20;;;3.50;;
34571;SDS011;20808;48.974;8.452;2023-01-28T00:47:36;3.97;;;3.30;;
34571;SDS011;20808;48.974;8.452;2023-01-28T00:47:52;3.53;;;3.13;;
34571;SDS011;20808;48.974;8.452;2023-01-28T00:48:09;4.18;;;3.40;;
34571;SDS011;20808;48.974;8.452;2023-01-28T00:48:24;4.30;;;3.50;;
34571;SDS011;20808;48.974;8.452;2023-01-28T00:48:40;4.30;;;3.60;;
34571;SDS011;20808;48.974;8.452;2023-01-28T00:48:57;4.40;;;3.60;;
34571;SDS011;20808;48.974;8.452;2023-01-28T00:49:13;4.10;;;3.30;;
34571;SDS011;20808;48.974;8.452;2023-01-28T00:49:30;4.43;;;3.42;;
34571;SDS011;20808;48.974;8.452;2023-01-28T00:49:46;5.20;;;3.70;;
34571;SDS011;20808;48.974;8.452;2023-01-28T00:50:02;5.13;;;3.60;;
34571;SDS011;20808;48.974;8.452;2023-01-28T00:50:18;5.15;;;3.70;;
34571;SDS011;20808;48.974;8.452;2023-01-28T00:50:35;4.95;;;3.50;;
34571;SDS011;20808;48.974;8.452;2023-01-28T00:50:51;4.80;;;3.53;;
34571;SDS011;20808;48.974;8.452;2023-01-28T00:51:08;4.78;;;3.60;;
34571;SDS011;20808;48.974;8.452;2023-01-28T00:51:26;4.38;;;3.45;;
34571;SDS011;20808;48.974;8.452;2023-01-28T00:51:42;4.30;;;3.50;;
34571;SDS011;20808;48.974;8.452;2023-01-28T00:51:57;4.30;;;3.78;;
34571;SDS011;20808;48.974;8.452;2023-01-28T00:52:14;4.88;;;4.00;;
34571;SDS011;20808;48.974;8.452;2023-01-28T00:52:31;4.80;;;4.00;;
34571;SDS011;20808;48.974;8.452;2023-01-28T00:52:47;5.72;;;4.03;;
34571;SDS011;20808;48.974;8.452;2023-01-28T00:53:03;5.75;;;4.05;;
34571;SDS011;20808;48.974;8.452;2023-01-28T00:53:19;5.68;;;4.15;;
34571;SDS011;20808;48.974;8.452;2023-01-28T00:53:35;5.55;;;4.20;;
34571;SDS011;20808;48.974;8.452;2023-01-28T00:53:52;4.95;;;4.13;;
34571;SDS011;20808;48.974;8.452;2023-01-28T00:54:09;4.88;;;4.20;;
34571;SDS011;20808;48.974;8.452;2023-01-28T00:54:26;4.97;;;4.13;;
34571;SDS011;20808;48.974;8.452;2023-01-28T00:54:42;5.05;;;4.00;;
34571;SDS011;20808;48.974;8.452;2023-01-28T00:54:58;5.30;;;4.05;;
34571;SDS011;20808;48.974;8.452;2023-01-28T00:55:15;5.55;;;3.90;;
34571;SDS011;20808;48.974;8.452;2023-01-28T00:55:31;5.63;;;3.90;;
34571;SDS011;20808;48.974;8.452;2023-01-28T00:55:47;5.75;;;4.00;;
34571;SDS011;20808;48.974;8.452;2023-01-28T00:56:03;5.35;;;3.83;;
34571;SDS011;20808;48.974;8.452;2023-01-28T00:56:21;5.35;;;3.90;;
34571;SDS011;20808;48.974;8.452;2023-01-28T00:56:38;5.00;;;3.70;;
34571;SDS011;20808;48.974;8.452;2023-01-28T00:56:53;5.20;;;3.70;;
34571;SDS011;20808;48.974;8.452;2023-01-28T00:57:09;5.20;;;3.50;;
34571;SDS011;20808;48.974;8.452;2023-01-28T00:57:25;4.63;;;3.42;;
34571;SDS011;20808;48.974;8.452;2023-01-28T00:57:41;4.75;;;3.70;;
34571;SDS011;20808;48.974;8.452;2023-01-28T00:57:57;4.82;;;3.80;;
34571;SDS011;20808;48.974;8.452;2023-01-28T00:58:13;4.55;;;3.75;;
34571;SDS011;20808;48.974;8.452;2023-01-28T00:58:29;4.72;;;3.75;;
34571;SDS011;20808;48.974;8.452;2023-01-28T00:58:45;4.60;;;3.63;;
34571;SDS011;20808;48.974;8.452;2023-01-28T00:59:01;5.00;;;3.85;;
34571;SDS011;20808;48.974;8.452;2023-01-28T00:59:17;5.05;;;3.78;;
34571;SDS011;20808;48.974;8.452;2023-01-28T00:59:33;5.45;;;3.90;;
34571;SDS011;20808;48.974;8.452;2023-01-28T00:59:49;5.53;;;4.00;;
34571;SDS011;20808;48.974;8.452;2023-01-28T01:00:06;5.90;;;4.00;;
34571;SDS011;20808;48.974;8.452;2023-01-28T01:00:22;5.55;;;4.03;;
34571;SDS011;20808;48.974;8.452;2023-01-28T01:00:39;5.30;;;3.97;;
34571;SDS011;20808;48.974;8.452;2023-01-28T01:00:55;4.90;;;3.67;;
34571;SDS011;20808;48.974;8.452;2023-01-28T01:01:11;4.60;;;3.60;;
34571;SDS011;20808;48.974;8.452;2023-01-28T01:01:29;4.40;;;3.40;;
34571;SDS011;20808;48.974;8.452;2023-01-28T01:01:45;5.13;;;3.40;;
34571;SDS011;20808;48.974;8.452;2023-01-28T01:02:01;5.57;;;3.58;;
34571;SDS011;20808;48.974;8.452;2023-01-28T01:02:26;5.38;;;3.60;;
34571;SDS011;20808;48.974;8.452;2023-01-28T01:02:42;4.78;;;3.70;;
34571;SDS011;20808;48.974;8.452;2023-01-28T01:02:59;4.45;;;3.50;;
34571;SDS011;20808;48.974;8.452;2023-01-28T01:03:14;4.30;;;3.40;;
34571;SDS011;20808;48.974;8.452;2023-01-28T01:03:31;4.80;;;3.50;;
34571;SDS011;20808;48.974;8.452;2023-01-28T01:03:47;4.78;;;3.47;;
34571;SDS011;20808;48.974;8.452;2023-01-28T01:04:11;5.93;;;3.60;;
34571;SDS011;20808;48.974;8.452;2023-01-28T01:04:28;5.97;;;3.58;;
34571;SDS011;20808;48.974;8.452;2023-01-28T01:04:46;5.70;;;3.47;;
34571;SDS011;20808;48.974;8.452;2023-01-28T01:05:12;4.50;;;3.20;;
34571;SDS011;20808;48.974;8.452;2023-01-28T01:05:28;4.25;;;3.28;;
34571;SDS011;20808;48.974;8.452;2023-01-28T01:05:44;4.50;;;3.30;;
34571;SDS011;20808;48.974;8.452;2023-01-28T01:06:01;4.70;;;3.30;;
34571;SDS011;20808;48.974;8.452;2023-01-28T01:06:17;4.70;;;3.30;;
34571;SDS011;20808;48.974;8.452;2023-01-28T01:06:34;4.57;;;3.28;;
34571;SDS011;20808;48.974;8.452;2023-01-28T01:06:51;4.55;;;3.38;;
34571;SDS011;20808;48.974;8.452;2023-01-28T01:07:07;6.15;;;3.60;;
34571;SDS011;20808;48.974;8.452;2023-01-28T01:07:23;5.90;;;3.60;;
34571;SDS011;20808;48.974;8.452;2023-01-28T01:07:50;5.82;;;3.55;;
34571;SDS011;20808;48.974;8.452;2023-01-28T01:08:05;4.03;;;3.30;;
34571;SDS011;20808;48.974;8.452;2023-01-28T01:08:21;4.30;;;3.38;;
34571;SDS011;20808;48.974;8.452;2023-01-28T01:08:48;4.95;;;3.30;;
34571;SDS011;20808;48.974;8.452;2023-01-28T01:09:06;5.25;;;3.22;;
34571;SDS011;20808;48.974;8.452;2023-01-28T01:09:26;4.63;;;3.30;;
34571;SDS011;20808;48.974;8.452;2023-01-28T01:09:41;5.25;;;3.45;;
34571;SDS011;20808;48.974;8.452;2023-01-28T01:09:58;5.70;;;3.65;;
34571;SDS011;20808;48.974;8.452;2023-01-28T01:10:14;5.80;;;3.60;;
34571;SDS011;20808;48.974;8.452;2023-01-28T01:10:32;6.00;;;3.85;;
34571;SDS011;20808;48.974;8.452;2023-01-28T01:10:49;5.70;;;3.88;;
34571;SDS011;20808;48.974;8.452;2023-01-28T01:11:05;5.50;;;3.78;;
34571;SDS011;20808;48.974;8.452;2023-01-28T01:11:22;4.50;;;3.53;;
34571;SDS011;20808;48.974;8.452;2023-01-28T01:11:38;4.10;;;3.45;;
34571;SDS011;20808;48.974;8.452;2023-01-28T01:11:54;4.30;;;3.58;;
34571;SDS011;20808;48.974;8.452;2023-01-28T01:12:11;4.63;;;3.60;;
34571;SDS011;20808;48.974;8.452;2023-01-28T01:12:27;4.50;;;3.50;;
34571;SDS011;20808;48.974;8.452;2023-01-28T01:12:44;4.32;;;3.30;;
34571;SDS011;20808;48.974;8.452;2023-01-28T01:13:00;4.10;;;3.20;;
34571;SDS011;20808;48.974;8.452;2023-01-28T01:13:16;4.20;;;3.30;;
34571;SDS011;20808;48.974;8.452;2023-01-28T01:13:33;4.30;;;3.33;;
34571;SDS011;20808;48.974;8.452;2023-01-28T01:13:50;4.10;;;3.20;;
34571;SDS011;20808;48.974;8.452;2023-01-28T01:14:08;4.35;;;3.30;;
34571;SDS011;20808;48.974;8.452;2023-01-28T01:14:25;4.53;;;3.30;;
34571;SDS011;20808;48.974;8.452;2023-01-28T01:14:41;5.07;;;3.30;;
34571;SDS011;20808;48.974;8.452;2023-01-28T01:14:56;4.95;;;3.30;;
34571;SDS011;20808;48.974;8.452;2023-01-28T01:15:13;4.80;;;3.40;;
34571;SDS011;20808;48.974;8.452;2023-01-28T01:15:30;5.22;;;3.70;;
34571;SDS011;20808;48.974;8.452;2023-01-28T01:15:46;5.13;;;3.45;;
34571;SDS011;20808;48.974;8.452;2023-01-28T01:16:02;5.20;;;3.40;;
34571;SDS011;20808;48.974;8.452;2023-01-28T01:16:20;5.35;;;3.53;;
34571;SDS011;20808;48.974;8.452;2023-01-28T01:16:37;4.10;;;3.33;;
34571;SDS011;20808;48.974;8.452;2023-01-28T01:16:53;3.90;;;3.30;;
34571;SDS011;20808;48.974;8.452;2023-01-28T01:17:09;4.17;;;3.33;;
34571;SDS011;20808;48.974;8.452;2023-01-28T01:17:25;4.30;;;3.30;;
34571;SDS011;20808;48.974;8.452;2023-01-28T01:17:44;4.13;;;3.40;;
34571;SDS011;20808;48.974;8.452;2023-01-28T01:18:02;4.45;;;3.47;;
34571;SDS011;20808;48.974;8.452;2023-01-28T01:18:18;4.68;;;3.40;;
34571;SDS011;20808;48.974;8.452;2023-01-28T01:18:35;5.15;;;3.50;;
34571;SDS011;20808;48.974;8.452;2023-01-28T01:18:51;5.22;;;3.40;;
34571;SDS011;20808;48.974;8.452;2023-01-28T01:19:08;5.30;;;3.50;;
34571;SDS011;20808;48.974;8.452;2023-01-28T01:19:24;4.50;;;3.33;;
34571;SDS011;20808;48.974;8.452;2023-01-28T01:19:40;4.32;;;3.30;;
34571;SDS011;20808;48.974;8.452;2023-01-28T01:19:56;4.70;;;3.50;;
34571;SDS011;20808;48.974;8.452;2023-01-28T01:20:13;4.67;;;3.73;;
34571;SDS011;20808;48.974;8.452;2023-01-28T01:20:31;4.68;;;3.65;;
34571;SDS011;20808;48.974;8.452;2023-01-28T01:20:47;5.20;;;3.67;;
34571;SDS011;20808;48.974;8.452;2023-01-28T01:21:06;5.30;;;3.58;;
34571;SDS011;20808;48.974;8.452;2023-01-28T01:21:23;5.18;;;3.40;;
34571;SDS011;20808;48.974;8.452;2023-01-28T01:21:40;4.75;;;3.40;;
34571;SDS011;20808;48.974;8.452;2023-01-28T01:21:57;4.30;;;3.40;;
34571;SDS011;20808;48.974;8.452;2023-01-28T01:22:12;3.80;;;3.20;;
34571;SDS011;20808;48.974;8.452;2023-01-28T01:22:28;3.67;;;3.28;;
34571;SDS011;20808;48.974;8.452;2023-01-28T01:22:47;3.75;;;3.20;;
34571;SDS011;20808;48.974;8.452;2023-01-28T01:23:04;4.50;;;3.50;;
34571;SDS011;20808;48.974;8.452;2023-01-28T01:23:21;5.03;;;3.80;;
34571;SDS011;20808;48.974;8.452;2023-01-28T01:23:37;4.93;;;3.70;;
34571;SDS011;20808;48.974;8.452;2023-01-28T01:23:53;4.80;;;3.60;;
34571;SDS011;20808;48.974;8.452;2023-01-28T01:24:09;4.32;;;3.35;;
34571;SDS011;20808;48.974;8.452;2023-01-28T01:24:25;4.68;;;3.20;;
34571;SDS011;20808;48.974;8.452;2023-01-28T01:24:43;4.22;;;3.17;;
34571;SDS011;20808;48.974;8.452;2023-01-28T01:24:59;4.57;;;3.50;;
34571;SDS011;20808;48.974;8.452;2023-01-28T01:25:15;4.90;;;3.60;;
34571;SDS011;20808;48.974;8.452;2023-01-28T01:25:31;4.47;;;3.70;;
34571;SDS011;20808;48.974;8.452;2023-01-28T01:25:47;4.65;;;3.75;;
34571;SDS011;20808;48.974;8.452;2023-01-28T01:26:03;4.50;;;3.50;;
34571;SDS011;20808;48.974;8.452;2023-01-28T01:26:21;4.40;;;3.40;;
34571;SDS011;20808;48.974;8.452;2023-01-28T01:26:37;4.40;;;3.40;;
34571;SDS011;20808;48.974;8.452;2023-01-28T01:26:52;4.20;;;3.30;;
34571;SDS011;20808;48.974;8.452;2023-01-28T01:27:08;4.20;;;3.20;;
34571;SDS011;20808;48.974;8.452;2023-01-28T01:27:24;4.15;;;3.20;;
34571;SDS011;20808;48.974;8.452;2023-01-28T01:27:40;4.18;;;3.10;;
34571;SDS011;20808;48.974;8.452;2023-01-28T01:27:57;4.18;;;3.28;;
34571;SDS011;20808;48.974;8.452;2023-01-28T01:28:12;4.13;;;3.40;;
34571;SDS011;20808;48.974;8.452;2023-01-28T01:28:29;4.10;;;3.40;;
34571;SDS011;20808;48.974;8.452;2023-01-28T01:28:45;4.00;;;3.50;;
34571;SDS011;20808;48.974;8.452;2023-01-28T01:29:02;3.80;;;3.30;;
34571;SDS011;20808;48.974;8.452;2023-01-28T01:29:18;4.00;;;3.10;;
34571;SDS011;20808;48.974;8.452;2023-01-28T01:29:34;3.70;;;3.00;;
34571;SDS011;20808;48.974;8.452;2023-01-28T01:29:50;4.13;;;3.20;;
34571;SDS011;20808;48.974;8.452;2023-01-28T01:30:07;4.53;;;3.35;;
34571;SDS011;20808;48.974;8.452;2023-01-28T01:30:24;4.80;;;3.50;;
34571;SDS011;20808;48.974;8.452;2023-01-28T01:30:40;5.13;;;3.60;;
34571;SDS011;20808;48.974;8.452;2023-01-28T01:30:58;4.80;;;3.50;;
34571;SDS011;20808;48.974;8.452;2023-01-28T01:31:17;4.30;;;3.42;;
34571;SDS011;20808;48.974;8.452;2023-01-28T01:31:34;4.30;;;3.40;;
34571;SDS011;20808;48.974;8.452;2023-01-28T01:31:49;4.23;;;3.40;;
34571;SDS011;20808;48.974;8.452;2023-01-28T01:32:05;3.90;;;3.30;;
34571;SDS011;20808;48.974;8.452;2023-01-28T01:32:21;3.90;;;3.20;;
34571;SDS011;20808;48.974;8.452;2023-01-28T01:32:37;3.90;;;3.20;;
34571;SDS011;20808;48.974;8.452;2023-01-28T01:32:54;4.70;;;3.30;;
34571;SDS011;20808;48.974;8.452;2023-01-28T01:33:09;4.78;;;3.30;;
34571;SDS011;20808;48.974;8.452;2023-01-28T01:33:26;4.43;;;3.27;;
34571;SDS011;20808;48.974;8.452;2023-01-28T01:33:44;4.30;;;3.20;;
34571;SDS011;20808;48.974;8.452;2023-01-28T01:34:01;3.47;;;3.13;;
34571;SDS011;20808;48.974;8.452;2023-01-28T01:34:18;3.78;;;3.10;;
34571;SDS011;20808;48.974;8.452;2023-01-28T01:34:34;4.18;;;3.30;;
34571;SDS011;20808;48.974;8.452;2023-01-28T01:34:49;4.53;;;3.40;;
34571;SDS011;20808;48.974;8.452;2023-01-28T01:35:06;4.93;;;3.50;;
34571;SDS011;20808;48.974;8.452;2023-01-28T01:35:24;5.38;;;3.45;;
34571;SDS011;20808;48.974;8.452;2023-01-28T01:35:40;5.88;;;3.58;;
34571;SDS011;20808;48.974;8.452;2023-01-28T01:35:56;5.88;;;3.50;;
34571;SDS011;20808;48.974;8.452;2023-01-28T01:36:13;5.53;;;3.40;;
34571;SDS011;20808;48.974;8.452;2023-01-28T01:36:31;4.47;;;3.10;;
34571;SDS011;20808;48.974;8.452;2023-01-28T01:36:47;4.20;;;3.10;;
34571;SDS011;20808;48.974;8.452;2023-01-28T01:37:02;5.20;;;2.90;;
34571;SDS011;20808;48.974;8.452;2023-01-28T01:37:20;5.40;;;3.00;;
34571;SDS011;20808;48.974;8.452;2023-01-28T01:37:37;5.70;;;3.20;;
34571;SDS011;20808;48.974;8.452;2023-01-28T01:37:52;5.23;;;3.40;;
34571;SDS011;20808;48.974;8.452;2023-01-28T01:38:09;4.57;;;3.42;;
34571;SDS011;20808;48.974;8.452;2023-01-28T01:38:26;4.45;;;3.50;;
34571;SDS011;20808;48.974;8.452;2023-01-28T01:38:42;4.40;;;3.20;;
34571;SDS011;20808;48.974;8.452;2023-01-28T01:38:59;4.15;;;3.10;;
34571;SDS011;20808;48.974;8.452;2023-01-28T01:39:14;4.23;;;3.20;;
34571;SDS011;20808;48.974;8.452;2023-01-28T01:39:30;3.95;;;3.05;;
34571;SDS011;20808;48.974;8.452;2023-01-28T01:39:46;4.00;;;3.10;;
34571;SDS011;20808;48.974;8.452;2023-01-28T01:40:03;4.47;;;3.22;;